Time;durP1;ratioP1;P1;durP2;ratioP2;P2;SDS_P1;SDS_P2;PMS_P1;PMS_P2;Temp;Humidity;BMP_temperature;BMP_pressure;BME280_temperature;BME280_humidity;BME280_pressure;Samples;Min_cycle;Max_cycle;Signal;HPM_P1;HPM_P2
2022/08/19 00:00:04;;;;;;;8.67;7.97;;;23.60;94.30;;;;;;5845063;24;20760;-86
2022/08/19 00:03:27;;;;;;;;;;;;;;;;;;;;;
2022/08/19 00:06:54;;;;;;;9.10;7.73;;;23.50;94.30;;;;;;6133361;23;20454;-84
2022/08/19 00:17:53;;;;;;;9.00;8.17;;;23.40;94.50;;;;;;6017311;23;20407;-84
2022/08/19 00:20:40;;;;;;;9.67;8.67;;;23.30;94.70;;;;;;6125788;23;20419;-85
2022/08/19 00:24:22;;;;;;;8.60;7.90;;;23.30;94.80;;;;;;6057074;23;20445;-86
2022/08/19 00:31:20;;;;;;;10.23;9.03;;;23.20;95.00;;;;;;5982060;24;20445;-85
2022/08/19 00:34:05;;;;;;;9.80;8.50;;;23.20;95.00;;;;;;5971523;23;20429;-85
2022/08/19 00:37:08;;;;;;;9.07;8.20;;;23.20;95.10;;;;;;5991208;23;20431;-85
2022/08/19 00:40:00;;;;;;;8.50;7.80;;;23.20;95.10;;;;;;6093335;23;20426;-85
2022/08/19 00:42:39;;;;;;;9.40;8.50;;;23.20;95.10;;;;;;6133437;23;20561;-85
2022/08/19 00:49:30;;;;;;;8.63;7.93;;;23.10;95.30;;;;;;6132304;23;20456;-85
2022/08/19 00:52:46;;;;;;;10.03;9.23;;;23.10;95.30;;;;;;5985618;23;20498;-87
2022/08/19 00:55:45;;;;;;;9.87;8.93;;;23.10;95.40;;;;;;5995063;23;20444;-85
2022/08/19 00:58:38;;;;;;;10.63;9.67;;;23.00;95.40;;;;;;5980964;24;20488;-83
2022/08/19 01:01:44;;;;;;;9.97;8.97;;;23.00;95.40;;;;;;5937252;24;20416;-84
2022/08/19 01:04:25;;;;;;;10.17;9.13;;;23.00;95.50;;;;;;5939311;24;20953;-85
2022/08/19 01:07:02;;;;;;;9.63;8.80;;;23.00;95.50;;;;;;5953810;24;20429;-85
2022/08/19 01:10:30;;;;;;;9.80;8.90;;;23.00;95.60;;;;;;5935094;24;20604;-84
2022/08/19 01:16:46;;;;;;;9.70;8.80;;;22.90;95.70;;;;;;5844842;24;20518;-86
2022/08/19 01:20:04;;;;;;;;;;;;;;;;;;;;;
2022/08/19 01:23:12;;;;;;;10.13;9.00;;;22.90;95.90;;;;;;5873759;24;20548;-85
2022/08/19 01:29:45;;;;;;;10.87;9.80;;;22.90;96.10;;;;;;5955487;24;20430;-84
2022/08/19 01:32:30;;;;;;;10.47;9.47;;;22.80;96.20;;;;;;5955068;24;20494;-86
2022/08/19 01:35:27;;;;;;;;;;;;;;;;;;;;;
2022/08/19 01:38:31;;;;;;;11.37;10.40;;;22.80;96.40;;;;;;6131612;23;20825;-86
2022/08/19 01:41:23;;;;;;;11.00;9.87;;;22.80;96.40;;;;;;6109323;23;20475;-86
2022/08/19 01:44:23;;;;;;;11.63;10.50;;;22.90;96.30;;;;;;6108285;23;20447;-85
2022/08/19 01:46:54;;;;;;;9.60;8.67;;;22.80;96.30;;;;;;6105828;23;20421;-84
2022/08/19 01:49:57;;;;;;;10.97;9.90;;;22.80;96.30;;;;;;6104076;23;20428;-85
2022/08/19 01:53:05;;;;;;;11.17;10.27;;;22.90;96.40;;;;;;6109129;23;20419;-85
2022/08/19 01:56:13;;;;;;;12.53;11.33;;;22.90;96.20;;;;;;6070002;23;20657;-84
2022/08/19 01:59:25;;;;;;;10.90;9.90;;;23.10;96.00;;;;;;6116110;23;20762;-85
2022/08/19 02:02:07;;;;;;;11.10;10.00;;;23.10;95.70;;;;;;6099177;23;20439;-85
2022/08/19 02:04:46;;;;;;;11.40;10.30;;;23.10;95.90;;;;;;6129475;23;20436;-85
2022/08/19 02:07:50;;;;;;;11.50;9.80;;;23.10;95.80;;;;;;6103111;23;20523;-83
2022/08/19 02:10:34;;;;;;;10.40;9.40;;;23.00;96.10;;;;;;6138173;23;20418;-85
2022/08/19 02:13:36;;;;;;;11.80;10.40;;;22.80;96.30;;;;;;6108242;23;20414;-83
2022/08/19 02:16:26;;;;;;;12.43;11.23;;;22.80;96.70;;;;;;6112209;23;20420;-83
2022/08/19 02:22:03;;;;;;;11.63;10.60;;;23.00;96.80;;;;;;6117931;23;20411;-84
2022/08/19 02:24:42;;;;;;;11.50;10.40;;;22.70;97.20;;;;;;6106256;23;20506;-84
2022/08/19 02:27:23;;;;;;;12.57;11.30;;;22.60;97.70;;;;;;6132731;23;20463;-84
2022/08/19 02:30:13;;;;;;;11.70;10.60;;;22.70;97.70;;;;;;6093479;23;20935;-85
2022/08/19 02:32:54;;;;;;;11.03;10.00;;;22.60;98.00;;;;;;6108075;23;20423;-85
2022/08/19 02:36:00;;;;;;;12.73;11.50;;;22.50;98.40;;;;;;6125514;23;20496;-85
2022/08/19 02:39:11;;;;;;;11.90;10.70;;;22.40;98.50;;;;;;6130886;23;20803;-84
2022/08/19 02:42:06;;;;;;;11.70;10.70;;;22.40;98.50;;;;;;6116091;23;20431;-84
2022/08/19 02:44:58;;;;;;;13.80;11.37;;;22.70;98.50;;;;;;6125637;23;20491;-84
2022/08/19 02:47:33;;;;;;;13.27;11.87;;;22.70;98.50;;;;;;6115644;23;20430;-83
2022/08/19 02:50:26;;;;;;;12.63;11.30;;;22.70;98.40;;;;;;6115448;23;20511;-85
2022/08/19 02:53:01;;;;;;;12.97;11.60;;;22.40;98.70;;;;;;6108632;23;20419;-83
2022/08/19 02:56:24;;;;;;;13.63;12.17;;;22.30;99.10;;;;;;6117548;23;20435;-82
2022/08/19 02:59:23;;;;;;;;;;;;;;;;;;;;;
2022/08/19 03:05:44;;;;;;;11.63;10.57;;;21.90;99.90;;;;;;6132210;23;20450;-85
2022/08/19 03:09:06;;;;;;;12.00;10.97;;;21.90;99.90;;;;;;6120597;23;20495;-85
2022/08/19 03:11:54;;;;;;;12.33;11.03;;;21.90;99.90;;;;;;6093934;23;20408;-85
2022/08/19 03:14:50;;;;;;;12.00;10.90;;;22.00;99.90;;;;;;5994051;23;20411;-85
2022/08/19 03:17:30;;;;;;;11.93;10.83;;;21.90;99.90;;;;;;6015545;23;20529;-85
2022/08/19 03:20:40;;;;;;;;;;;;;;;;;;;;;
2022/08/19 03:23:50;;;;;;;13.20;12.00;;;21.90;99.90;;;;;;6016686;23;20442;-82
2022/08/19 03:26:51;;;;;;;11.90;10.70;;;22.00;99.90;;;;;;6000824;23;20507;-84
2022/08/19 03:29:41;;;;;;;12.23;11.03;;;22.00;99.90;;;;;;5957098;24;20854;-83
2022/08/19 03:32:44;;;;;;;12.70;10.17;;;22.00;99.90;;;;;;5963368;24;20417;-84
2022/08/19 03:35:36;;;;;;;12.43;11.17;;;22.00;99.60;;;;;;5949026;24;20486;-85
2022/08/19 03:38:44;;;;;;;11.93;10.83;;;22.10;98.60;;;;;;6029321;23;20519;-87
2022/08/19 03:41:55;;;;;;;;;;;;;;;;;;;;;
2022/08/19 03:44:49;;;;;;;14.77;11.20;;;22.00;98.70;;;;;;6010157;23;20482;-84
2022/08/19 03:47:55;;;;;;;;;;;;;;;;;;;;;
2022/08/19 03:50:55;;;;;;;11.80;10.80;;;21.90;98.60;;;;;;5978107;23;20459;-85
2022/08/19 03:53:39;;;;;;;14.17;11.30;;;22.20;98.30;;;;;;6120488;23;20404;-84
2022/08/19 03:56:37;;;;;;;13.20;12.00;;;22.40;98.00;;;;;;6008517;23;20432;-86
2022/08/19 04:02:57;;;;;;;19.13;17.23;;;22.00;98.50;;;;;;6005617;23;20848;-85
2022/08/19 04:05:46;;;;;;;21.00;18.80;;;21.90;99.00;;;;;;5998218;23;20443;-83
2022/08/19 04:08:34;;;;;;;21.37;19.00;;;21.80;99.20;;;;;;6011434;23;20416;-85
2022/08/19 04:11:41;;;;;;;21.17;19.00;;;21.80;99.50;;;;;;6008556;23;20431;-87
2022/08/19 04:14:41;;;;;;;24.87;20.23;;;21.70;99.80;;;;;;5930294;24;20438;-85
2022/08/19 04:18:08;;;;;;;24.80;19.50;;;21.60;99.90;;;;;;5922317;24;20406;-85
2022/08/19 04:20:52;;;;;;;23.67;21.27;;;21.60;99.90;;;;;;5904044;24;20458;-85
2022/08/19 04:23:28;;;;;;;23.33;20.77;;;21.60;99.90;;;;;;5934437;24;20453;-85
2022/08/19 04:26:36;;;;;;;21.10;18.97;;;21.50;99.90;;;;;;5918072;23;20444;-86
2022/08/19 04:32:55;;;;;;;21.00;18.90;;;21.50;99.90;;;;;;5953983;24;20421;-86
2022/08/19 04:36:20;;;;;;;23.10;20.70;;;21.50;99.90;;;;;;5958099;24;20456;-87
2022/08/19 04:39:01;;;;;;;25.33;21.47;;;21.60;99.90;;;;;;5964667;24;20409;-87
2022/08/19 04:45:15;;;;;;;24.43;20.87;;;21.60;99.90;;;;;;6002152;23;20446;-84
2022/08/19 04:48:05;;;;;;;22.73;20.33;;;21.60;99.90;;;;;;6018576;23;20406;-86
2022/08/19 04:51:32;;;;;;;24.13;21.63;;;21.60;99.90;;;;;;6042800;23;20435;-87
2022/08/19 04:54:24;;;;;;;24.73;22.27;;;21.70;99.90;;;;;;6033171;23;20418;-83
2022/08/19 04:57:52;;;;;;;23.13;20.80;;;21.70;99.90;;;;;;6003222;23;20410;-85
2022/08/19 05:00:54;;;;;;;25.50;22.90;;;21.80;99.90;;;;;;6067071;23;20446;-84
2022/08/19 05:07:09;;;;;;;26.00;23.00;;;21.80;99.90;;;;;;6113023;23;20423;-85
2022/08/19 05:10:24;;;;;;;24.50;21.90;;;21.70;99.90;;;;;;6101327;23;20450;-85
2022/08/19 05:12:59;;;;;;;23.63;21.07;;;21.70;99.90;;;;;;6105301;23;20416;-85
2022/08/19 05:16:31;;;;;;;25.00;22.60;;;21.70;99.90;;;;;;6106512;23;20426;-84
2022/08/19 05:26:26;;;;;;;22.73;20.17;;;21.70;99.90;;;;;;5975598;23;20434;-85
2022/08/19 05:29:24;;;;;;;22.77;20.23;;;21.70;99.90;;;;;;5987702;23;20409;-85
2022/08/19 05:32:27;;;;;;;23.73;21.33;;;21.70;99.90;;;;;;6109308;23;20430;-84
2022/08/19 05:34:56;;;;;;;25.03;21.83;;;21.70;99.90;;;;;;6131960;23;20939;-84
2022/08/19 05:37:53;;;;;;;25.90;23.20;;;21.70;99.90;;;;;;6108837;23;20417;-84
2022/08/19 05:41:17;;;;;;;25.43;22.63;;;21.60;99.90;;;;;;6067985;23;20441;-85
2022/08/19 05:44:42;;;;;;;22.90;20.50;;;21.60;99.90;;;;;;6080147;23;20438;-83
2022/08/19 05:48:20;;;;;;;23.43;20.80;;;21.60;99.90;;;;;;6109473;23;20424;-85
2022/08/19 05:55:25;;;;;;;24.33;21.80;;;21.50;99.90;;;;;;6042305;23;20520;-84
2022/08/19 05:59:01;;;;;;;24.87;22.13;;;21.50;99.90;;;;;;5934039;24;20946;-85
2022/08/19 06:02:15;;;;;;;24.87;22.20;;;21.40;99.90;;;;;;5991979;23;20412;-86
2022/08/19 06:05:45;;;;;;;25.20;22.50;;;21.40;99.90;;;;;;5990701;23;21026;-86
2022/08/19 06:09:25;;;;;;;;;;;;;;;;;;;;;
2022/08/19 06:16:27;;;;;;;26.67;23.13;;;21.80;99.90;;;;;;5894022;24;20426;-85
2022/08/19 06:19:32;;;;;;;23.77;21.27;;;22.60;99.90;;;;;;5875985;24;20411;-86
2022/08/19 06:23:05;;;;;;;;;;;;;;;;;;;;;
2022/08/19 06:34:37;;;;;;;23.03;20.63;;;24.70;95.90;;;;;;5959971;24;20396;-85
2022/08/19 06:42:26;;;;;;;21.80;19.30;;;25.00;95.30;;;;;;5983075;23;20485;-84
2022/08/19 06:49:18;;;;;;;22.23;19.93;;;25.70;93.80;;;;;;5935344;24;20425;-83
2022/08/19 06:56:07;;;;;;;24.00;21.43;;;24.30;95.60;;;;;;5974164;23;20455;-84
2022/08/19 07:00:03;;;;;;;19.70;17.70;;;24.20;96.30;;;;;;5987742;24;20535;-84
2022/08/19 07:03:22;;;;;;;22.80;19.47;;;24.20;96.20;;;;;;5970092;24;20770;-85
2022/08/19 07:13:24;;;;;;;22.17;19.73;;;27.60;89.80;;;;;;5985835;24;20424;-84
2022/08/19 07:16:39;;;;;;;20.57;18.57;;;27.20;89.40;;;;;;5951492;24;20480;-85
2022/08/19 07:19:21;;;;;;;20.83;18.63;;;26.70;90.80;;;;;;5985390;23;21185;-85
2022/08/19 07:24:44;;;;;;;20.00;17.90;;;26.70;90.80;;;;;;6137567;23;20553;-85
2022/08/19 07:27:31;;;;;;;18.60;16.57;;;26.80;90.90;;;;;;6120172;23;20396;-86
2022/08/19 07:30:14;;;;;;;19.30;17.50;;;27.00;90.30;;;;;;6124658;23;20399;-86
2022/08/19 07:37:33;;;;;;;;;;;;;;;;;;;;;
2022/08/19 07:40:15;;;;;;;18.50;16.47;;;27.00;87.30;;;;;;6181197;23;20433;-86
2022/08/19 07:43:11;;;;;;;17.53;15.40;;;26.30;90.00;;;;;;6175249;23;20402;-85
2022/08/19 07:46:28;;;;;;;17.13;15.43;;;25.90;91.00;;;;;;6151204;23;20427;-86
2022/08/19 07:49:18;;;;;;;17.20;15.50;;;25.90;91.30;;;;;;6045091;23;20461;-86
2022/08/19 07:52:35;;;;;;;18.67;16.60;;;25.50;91.40;;;;;;6043820;23;20489;-85
2022/08/19 07:55:39;;;;;;;;;;;;;;;;;;;;;
2022/08/19 07:58:42;;;;;;;22.33;19.90;;;24.90;93.00;;;;;;6042735;23;20365;-85
2022/08/19 08:01:53;;;;;;;25.63;18.07;;;24.40;93.80;;;;;;6021742;23;20448;-84
2022/08/19 08:14:52;;;;;;;23.50;18.27;;;23.80;96.10;;;;;;6043208;23;20444;-85
2022/08/19 08:21:46;;;;;;;25.00;20.57;;;23.70;96.60;;;;;;6015662;23;20433;-83
2022/08/19 08:24:39;;;;;;;25.07;22.13;;;23.90;96.40;;;;;;6041526;23;20485;-86
2022/08/19 08:27:51;;;;;;;;;;;;;;;;;;;;;
2022/08/19 08:30:45;;;;;;;23.20;20.80;;;24.90;95.10;;;;;;6162544;23;20414;-85
2022/08/19 08:33:46;;;;;;;25.10;20.13;;;25.70;93.60;;;;;;6140133;23;20411;-87
2022/08/19 08:36:54;;;;;;;24.10;21.20;;;26.50;91.80;;;;;;6141881;23;20402;-84
2022/08/19 08:40:24;;;;;;;25.50;21.83;;;27.10;90.40;;;;;;6126814;23;20407;-85
2022/08/19 08:43:43;;;;;;;24.70;22.10;;;27.50;89.60;;;;;;6090894;23;20409;-86
2022/08/19 08:51:27;;;;;;;27.10;23.70;;;26.80;89.60;;;;;;6161253;23;20403;-84
2022/08/19 08:58:40;;;;;;;;;;;;;;;;;;;;;
2022/08/19 09:01:29;;;;;;;28.23;23.53;;;26.90;89.50;;;;;;6125038;23;20417;-87
2022/08/19 09:04:19;;;;;;;32.43;26.37;;;27.30;88.80;;;;;;6137835;23;20438;-86
2022/08/19 09:07:38;;;;;;;;;;;;;;;;;;;;;
2022/08/19 09:10:57;;;;;;;32.90;27.67;;;27.90;84.20;;;;;;6042052;23;20466;-85
2022/08/19 09:13:45;;;;;;;29.90;26.37;;;27.40;85.60;;;;;;6022541;23;20414;-85
2022/08/19 09:17:33;;;;;;;30.17;25.63;;;27.20;86.50;;;;;;5912738;24;20413;-85
2022/08/19 09:21:14;;;;;;;25.30;22.60;;;27.30;85.30;;;;;;5934550;24;20373;-85
2022/08/19 09:24:03;;;;;;;24.87;22.13;;;28.10;81.90;;;;;;5909971;24;20402;-86
2022/08/19 09:28:08;;;;;;;22.57;20.30;;;28.80;79.00;;;;;;5913321;24;20406;-85
2022/08/19 09:31:22;;;;;;;23.27;20.97;;;29.20;74.60;;;;;;5932517;24;20431;-86
2022/08/19 09:34:24;;;;;;;23.90;21.40;;;29.50;71.60;;;;;;5923837;24;20406;-88
2022/08/19 09:37:00;;;;;;;21.07;18.87;;;30.50;70.00;;;;;;5981432;24;20420;-86
2022/08/19 09:40:30;;;;;;;;;;;;;;;;;;;;;
2022/08/19 09:43:56;;;;;;;23.67;21.47;;;31.20;64.00;;;;;;5984333;23;20408;-86
2022/08/19 09:47:04;;;;;;;19.27;17.37;;;31.70;61.10;;;;;;5991186;23;20447;-84
2022/08/19 09:49:55;;;;;;;20.17;18.27;;;31.20;60.60;;;;;;5985247;23;20408;-86
2022/08/19 09:53:02;;;;;;;20.33;18.53;;;31.20;61.10;;;;;;5886387;24;20399;-85
2022/08/19 09:56:04;;;;;;;20.43;18.50;;;31.90;59.30;;;;;;6044074;23;20452;-86
2022/08/19 10:02:41;;;;;;;16.60;15.10;;;31.30;59.10;;;;;;5957905;24;20415;-86
2022/08/19 10:08:54;;;;;;;13.10;12.00;;;31.70;57.60;;;;;;6024365;23;20433;-84
2022/08/19 10:11:52;;;;;;;12.37;11.17;;;31.20;57.10;;;;;;6023100;23;20757;-86
2022/08/19 10:14:46;;;;;;;12.17;10.93;;;31.30;56.80;;;;;;6041705;23;20536;-86
2022/08/19 10:17:22;;;;;;;15.43;14.03;;;31.90;55.80;;;;;;6024296;23;20454;-85
2022/08/19 10:23:10;;;;;;;12.07;11.03;;;31.40;55.80;;;;;;6129778;23;20412;-84
2022/08/19 10:29:56;;;;;;;12.40;11.23;;;31.40;56.30;;;;;;6037520;23;20385;-86
2022/08/19 10:33:37;;;;;;;12.67;11.50;;;31.30;56.50;;;;;;6034099;23;20391;-85
2022/08/19 10:37:09;;;;;;;13.83;12.73;;;31.10;56.80;;;;;;6033417;23;20426;-85
2022/08/19 10:40:19;;;;;;;15.07;13.67;;;30.50;58.10;;;;;;5940862;24;20419;-87
2022/08/19 10:43:20;;;;;;;13.53;12.43;;;29.90;59.70;;;;;;5923775;24;20411;-84
2022/08/19 10:46:44;;;;;;;13.63;12.53;;;30.40;59.20;;;;;;5824900;24;20492;-85
2022/08/19 10:53:14;;;;;;;13.50;12.40;;;30.70;57.80;;;;;;5798702;24;20395;-87
2022/08/19 10:57:24;;;;;;;15.30;13.90;;;31.00;57.30;;;;;;5779631;24;20445;-85
2022/08/19 11:00:55;;;;;;;13.10;12.00;;;31.40;56.50;;;;;;5823676;24;20508;-85
2022/08/19 11:04:04;;;;;;;15.30;14.00;;;30.60;57.60;;;;;;5824125;24;20512;-86
2022/08/19 11:07:54;;;;;;;15.10;13.70;;;30.00;59.70;;;;;;5772090;24;20412;-87
2022/08/19 11:10:36;;;;;;;17.53;14.20;;;30.60;59.20;;;;;;5722003;24;20650;-87
2022/08/19 11:13:46;;;;;;;15.63;14.23;;;30.20;59.50;;;;;;5749911;24;20463;-87
2022/08/19 11:16:42;;;;;;;15.13;13.83;;;29.70;60.50;;;;;;5766437;24;20422;-86
2022/08/19 11:19:25;;;;;;;17.03;15.23;;;29.40;61.70;;;;;;5799194;24;20441;-86
2022/08/19 11:22:08;;;;;;;13.80;12.60;;;29.40;61.20;;;;;;5843919;24;20458;-85
2022/08/19 11:24:46;;;;;;;12.33;11.33;;;29.60;60.60;;;;;;5976602;23;20458;-84
2022/08/19 11:28:00;;;;;;;;;;;;;;;;;;;;;
2022/08/19 11:31:20;;;;;;;10.83;9.73;;;29.90;58.90;;;;;;5985604;23;20428;-86
2022/08/19 11:34:55;;;;;;;13.23;11.97;;;30.10;58.30;;;;;;6115422;23;20375;-86
2022/08/19 11:37:44;;;;;;;12.67;11.57;;;30.10;58.20;;;;;;5996096;23;20419;-89
2022/08/19 11:40:25;;;;;;;12.10;11.20;;;30.40;57.20;;;;;;6013127;23;20435;-85
2022/08/19 11:42:55;;;;;;;11.37;10.37;;;30.40;56.80;;;;;;6077673;23;20419;-83
2022/08/19 11:45:27;;;;;;;11.97;10.77;;;30.00;57.30;;;;;;6106003;23;20588;-83
2022/08/19 11:48:06;;;;;;;10.30;9.50;;;29.70;58.10;;;;;;6108576;23;20411;-86
2022/08/19 11:50:45;;;;;;;9.73;8.97;;;30.20;58.30;;;;;;6132552;23;20419;-84
2022/08/19 11:53:12;;;;;;;9.37;8.53;;;30.60;56.20;;;;;;6107161;23;20731;-84
2022/08/19 11:55:39;;;;;;;8.80;8.10;;;30.60;55.00;;;;;;6106666;23;20459;-83
2022/08/19 11:58:14;;;;;;;10.00;9.07;;;30.90;55.50;;;;;;6106829;23;20451;-83
2022/08/19 12:00:44;;;;;;;10.13;9.30;;;31.20;54.50;;;;;;6132899;23;20833;-85
2022/08/19 12:03:18;;;;;;;9.63;8.87;;;31.00;54.50;;;;;;6109738;23;20407;-85
2022/08/19 12:05:47;;;;;;;9.80;9.00;;;30.90;55.10;;;;;;6108984;23;20451;-85
2022/08/19 12:08:26;;;;;;;10.90;9.80;;;30.50;56.10;;;;;;6108883;23;20483;-85
2022/08/19 12:10:57;;;;;;;10.83;9.93;;;30.30;56.40;;;;;;6108950;23;20418;-84
2022/08/19 12:13:32;;;;;;;10.77;9.87;;;30.00;57.10;;;;;;6133021;23;20420;-83
2022/08/19 12:16:06;;;;;;;8.67;7.97;;;30.00;56.90;;;;;;6107331;23;20771;-84
2022/08/19 12:18:45;;;;;;;8.70;7.90;;;30.10;56.60;;;;;;6132237;23;20430;-84
2022/08/19 12:21:20;;;;;;;8.53;7.73;;;30.40;56.50;;;;;;6130191;23;20415;-86
2022/08/19 12:23:59;;;;;;;7.73;7.20;;;30.50;55.80;;;;;;6106958;23;20423;-85
2022/08/19 12:26:31;;;;;;;7.80;7.10;;;30.60;55.00;;;;;;6108679;23;20451;-84
2022/08/19 12:28:59;;;;;;;8.80;8.13;;;30.80;54.80;;;;;;6107053;23;20444;-82
2022/08/19 12:31:30;;;;;;;8.03;7.37;;;30.90;53.90;;;;;;6109469;23;20479;-82
2022/08/19 12:34:02;;;;;;;9.00;8.20;;;30.80;54.00;;;;;;6112110;23;20416;-85
2022/08/19 12:36:34;;;;;;;7.77;7.07;;;30.90;53.70;;;;;;6112496;23;20427;-86
2022/08/19 12:39:06;;;;;;;7.67;7.07;;;31.00;53.70;;;;;;6116664;23;20415;-86
2022/08/19 12:41:37;;;;;;;8.67;7.87;;;31.20;53.10;;;;;;6115331;23;20430;-83
2022/08/19 12:44:17;;;;;;;8.37;7.67;;;31.50;52.70;;;;;;6136418;23;20408;-83
2022/08/19 12:47:04;;;;;;;8.00;7.30;;;31.60;51.80;;;;;;6118354;23;20412;-85
2022/08/19 12:49:36;;;;;;;9.03;8.23;;;31.50;52.00;;;;;;6107275;23;20467;-83
2022/08/19 12:52:26;;;;;;;8.50;7.63;;;31.50;52.50;;;;;;6111787;23;20448;-84
2022/08/19 12:54:59;;;;;;;7.80;7.20;;;31.40;52.80;;;;;;6110103;23;20487;-84
2022/08/19 12:57:35;;;;;;;8.30;7.50;;;31.50;53.20;;;;;;6117009;23;20412;-85
2022/08/19 13:00:20;;;;;;;9.73;8.83;;;31.60;52.20;;;;;;6142496;23;20422;-84
2022/08/19 13:03:07;;;;;;;8.97;8.17;;;31.50;51.60;;;;;;6143586;23;20491;-85
2022/08/19 13:05:46;;;;;;;7.97;7.37;;;31.40;51.00;;;;;;6145413;23;20471;-85
2022/08/19 13:08:23;;;;;;;8.50;7.77;;;31.10;51.40;;;;;;6122866;23;20402;-86
2022/08/19 13:10:55;;;;;;;7.63;6.90;;;30.70;52.70;;;;;;6148853;23;20431;-82
2022/08/19 13:13:30;;;;;;;8.20;7.50;;;30.50;53.40;;;;;;6145971;23;20469;-85
2022/08/19 13:16:03;;;;;;;8.47;7.73;;;30.50;53.60;;;;;;6123198;23;20988;-83
2022/08/19 13:18:47;;;;;;;11.73;9.80;;;30.60;53.50;;;;;;6125948;23;20406;-87
2022/08/19 13:21:26;;;;;;;8.57;7.77;;;31.10;53.00;;;;;;6122997;23;20415;-83
2022/08/19 13:24:19;;;;;;;7.30;6.70;;;31.40;51.20;;;;;;6112919;23;20408;-82
2022/08/19 13:27:07;;;;;;;7.40;6.80;;;31.30;51.00;;;;;;6117306;23;20411;-83
2022/08/19 13:35:54;;;;;;;6.30;5.70;;;31.10;50.10;;;;;;6143358;23;20427;-84
2022/08/19 13:38:31;;;;;;;6.83;6.20;;;31.30;49.70;;;;;;6117577;23;20388;-82
2022/08/19 13:41:19;;;;;;;5.97;5.40;;;31.80;48.50;;;;;;6117143;23;20439;-83
2022/08/19 13:47:42;;;;;;;6.33;5.73;;;31.20;49.20;;;;;;6073783;23;20453;-83
2022/08/19 13:50:12;;;;;;;6.37;5.73;;;31.20;49.20;;;;;;6053508;23;20421;-83
2022/08/19 13:52:47;;;;;;;5.60;5.10;;;31.40;49.00;;;;;;6052331;23;20803;-81
2022/08/19 13:55:26;;;;;;;6.83;6.00;;;31.50;48.60;;;;;;6073879;23;20433;-86
2022/08/19 13:58:10;;;;;;;6.07;5.57;;;31.60;48.30;;;;;;6074176;23;20496;-83
2022/08/19 14:00:50;;;;;;;7.13;6.10;;;31.40;48.50;;;;;;6052017;23;20398;-86
2022/08/19 14:03:52;;;;;;;5.50;5.00;;;31.50;48.60;;;;;;6052974;23;20420;-84
2022/08/19 14:06:38;;;;;;;;;;;;;;;;;;;;;
2022/08/19 14:09:18;;;;;;;5.90;5.30;;;31.20;48.20;;;;;;6055542;23;20409;-85
2022/08/19 14:12:06;;;;;;;7.03;6.40;;;31.20;48.50;;;;;;6051770;23;20444;-84
2022/08/19 14:15:08;;;;;;;6.50;5.23;;;31.20;48.60;;;;;;6098393;23;20490;-84
2022/08/19 14:17:55;;;;;;;5.57;5.00;;;31.10;48.10;;;;;;6110304;23;20443;-83
2022/08/19 14:20:33;;;;;;;5.60;5.10;;;30.80;47.60;;;;;;6114415;23;20431;-84
2022/08/19 14:23:25;;;;;;;6.83;6.30;;;30.80;48.60;;;;;;6115364;23;20440;-82
2022/08/19 14:26:18;;;;;;;6.77;5.53;;;30.70;49.30;;;;;;6113660;23;20766;-83
2022/08/19 14:29:01;;;;;;;7.87;6.23;;;30.60;49.80;;;;;;6107268;23;20443;-83
2022/08/19 14:32:06;;;;;;;5.30;4.80;;;30.80;49.80;;;;;;6112897;23;20423;-85
2022/08/19 14:35:02;;;;;;;7.50;6.47;;;30.70;49.70;;;;;;6114766;23;20447;-86
2022/08/19 14:37:53;;;;;;;6.80;6.10;;;31.00;49.90;;;;;;6138415;23;20400;-84
2022/08/19 14:40:29;;;;;;;6.73;6.23;;;31.00;49.30;;;;;;6108894;23;20430;-83
2022/08/19 14:43:18;;;;;;;5.97;5.47;;;31.30;48.90;;;;;;6134617;23;20412;-84
2022/08/19 14:45:49;;;;;;;5.33;4.83;;;31.00;49.50;;;;;;6108110;23;20451;-85
2022/08/19 14:48:29;;;;;;;5.77;5.27;;;30.80;49.70;;;;;;6107519;23;20408;-84
2022/08/19 14:51:06;;;;;;;5.30;4.80;;;30.70;49.50;;;;;;6108682;23;20446;-85
2022/08/19 14:53:51;;;;;;;5.97;5.37;;;30.80;49.30;;;;;;6132603;23;20416;-84
2022/08/19 14:56:35;;;;;;;5.47;5.00;;;30.80;49.90;;;;;;6107999;23;20446;-84
2022/08/19 14:59:03;;;;;;;6.20;5.40;;;30.80;50.00;;;;;;6108061;23;20468;-84
2022/08/19 15:01:37;;;;;;;5.83;5.20;;;31.00;48.90;;;;;;6107032;23;20737;-84
2022/08/19 15:04:11;;;;;;;5.00;4.60;;;31.00;48.90;;;;;;6108747;23;20439;-83
2022/08/19 15:06:45;;;;;;;4.00;3.63;;;30.90;49.00;;;;;;6108811;23;20474;-85
2022/08/19 15:09:20;;;;;;;4.10;3.80;;;30.70;49.00;;;;;;6108758;23;20408;-84
2022/08/19 15:11:53;;;;;;;4.03;3.73;;;30.80;48.60;;;;;;6108568;23;20404;-84
2022/08/19 15:14:21;;;;;;;6.10;4.90;;;30.80;48.50;;;;;;6134633;23;20439;-85
2022/08/19 15:16:59;;;;;;;6.33;3.77;;;30.70;48.10;;;;;;6132330;23;20474;-84
2022/08/19 15:20:12;;;;;;;4.50;4.10;;;30.50;47.80;;;;;;6113877;23;20380;-83
2022/08/19 15:22:45;;;;;;;4.70;4.20;;;30.40;48.30;;;;;;6107597;23;20430;-85
2022/08/19 15:25:29;;;;;;;3.73;3.30;;;30.40;48.10;;;;;;6108405;23;20443;-84
2022/08/19 15:28:05;;;;;;;4.40;4.00;;;30.50;48.00;;;;;;6132233;23;20415;-85
2022/08/19 15:31:13;;;;;;;4.83;3.70;;;30.40;48.30;;;;;;6114562;23;20422;-83
2022/08/19 15:34:06;;;;;;;4.23;3.93;;;30.30;48.60;;;;;;6111351;23;20431;-83
2022/08/19 15:36:57;;;;;;;3.70;3.40;;;30.30;48.30;;;;;;6108543;23;20868;-85
2022/08/19 15:39:33;;;;;;;3.40;3.10;;;30.10;48.40;;;;;;6107137;23;20438;-86
2022/08/19 15:42:32;;;;;;;5.20;3.70;;;30.10;48.20;;;;;;6133519;23;20927;-85
2022/08/19 15:45:20;;;;;;;3.10;2.80;;;30.20;48.20;;;;;;6102607;23;20503;-83
2022/08/19 15:48:01;;;;;;;3.10;2.80;;;30.00;48.60;;;;;;6107956;23;20418;-84
2022/08/19 15:50:34;;;;;;;3.30;2.93;;;29.90;49.30;;;;;;6106526;23;20770;-83
2022/08/19 15:53:08;;;;;;;4.60;2.90;;;29.80;49.50;;;;;;6088620;23;20387;-82
2022/08/19 15:55:41;;;;;;;3.23;3.00;;;29.70;49.70;;;;;;6109887;23;20495;-84
2022/08/19 16:06:53;;;;;;;3.90;3.60;;;30.00;51.10;;;;;;6151875;23;20463;-87
2022/08/19 16:09:27;;;;;;;4.53;3.90;;;29.70;51.90;;;;;;6152425;23;20482;-84
2022/08/19 16:12:03;;;;;;;4.43;3.60;;;29.60;52.50;;;;;;6113407;23;20412;-82
2022/08/19 16:14:32;;;;;;;4.17;3.77;;;29.60;52.90;;;;;;6112992;23;20427;-84
2022/08/19 16:17:01;;;;;;;4.20;3.27;;;29.50;53.20;;;;;;6110534;23;20416;-83
2022/08/19 16:19:28;;;;;;;3.90;3.60;;;29.50;53.60;;;;;;6106545;23;20479;-84
2022/08/19 16:22:17;;;;;;;4.67;3.70;;;29.60;53.70;;;;;;6137057;23;20779;-82
2022/08/19 16:24:47;;;;;;;6.83;4.30;;;29.40;53.90;;;;;;6137626;23;20446;-85
2022/08/19 16:27:21;;;;;;;4.70;3.20;;;29.50;54.20;;;;;;6107250;23;20474;-84
2022/08/19 16:30:07;;;;;;;3.57;3.27;;;29.40;54.20;;;;;;6108402;23;20490;-83
2022/08/19 16:32:42;;;;;;;3.47;3.17;;;29.40;54.60;;;;;;6109027;23;20503;-85
2022/08/19 16:35:13;;;;;;;3.40;3.10;;;29.40;54.30;;;;;;6134407;23;20431;-83
2022/08/19 16:37:43;;;;;;;3.20;2.77;;;29.40;54.60;;;;;;6133261;23;20872;-84
2022/08/19 16:40:13;;;;;;;2.80;2.60;;;29.40;54.60;;;;;;6130879;23;20423;-83
2022/08/19 16:42:45;;;;;;;3.20;2.90;;;29.30;54.70;;;;;;6107338;23;20454;-83
2022/08/19 16:45:24;;;;;;;2.70;2.50;;;29.00;55.10;;;;;;6107945;23;20435;-83
2022/08/19 16:47:59;;;;;;;3.77;2.83;;;28.90;55.50;;;;;;6106558;23;20410;-83
2022/08/19 16:50:30;;;;;;;3.27;2.97;;;28.80;55.70;;;;;;6106955;23;20392;-84
2022/08/19 16:53:19;;;;;;;3.10;2.90;;;28.90;55.80;;;;;;6132803;23;20868;-85
2022/08/19 16:55:57;;;;;;;3.03;2.63;;;29.00;55.80;;;;;;6108500;23;20463;-81
2022/08/19 16:58:29;;;;;;;3.17;2.03;;;29.10;55.50;;;;;;6105696;23;20415;-85
2022/08/19 17:00:57;;;;;;;2.13;2.03;;;29.00;55.80;;;;;;6107198;23;20439;-84
2022/08/19 17:03:36;;;;;;;2.50;2.30;;;28.90;56.50;;;;;;6135179;23;20433;-84
2022/08/19 17:06:21;;;;;;;2.20;2.10;;;28.80;57.00;;;;;;6108769;23;20443;-83
2022/08/19 17:08:55;;;;;;;2.47;2.27;;;28.70;57.50;;;;;;6109259;23;20800;-85
2022/08/19 17:11:27;;;;;;;2.10;2.00;;;28.60;57.80;;;;;;6136260;23;20388;-84
2022/08/19 17:13:57;;;;;;;4.47;2.60;;;28.50;58.40;;;;;;6147869;23;20419;-88
2022/08/19 17:16:32;;;;;;;3.17;2.00;;;28.40;58.70;;;;;;6148794;23;20380;-87
2022/08/19 17:19:05;;;;;;;3.17;2.70;;;28.40;58.90;;;;;;6111396;23;20412;-84
2022/08/19 17:21:43;;;;;;;4.60;2.50;;;28.40;59.00;;;;;;6130607;23;20415;-83
2022/08/19 17:24:11;;;;;;;4.40;2.90;;;28.50;59.70;;;;;;6105088;23;20415;-83
2022/08/19 17:26:43;;;;;;;4.80;2.37;;;28.50;59.10;;;;;;6105043;23;20458;-84
2022/08/19 17:29:10;;;;;;;2.83;2.60;;;28.40;59.30;;;;;;6105942;23;20439;-84
2022/08/19 17:31:43;;;;;;;2.90;2.23;;;28.30;59.60;;;;;;6104837;23;20420;-85
2022/08/19 17:34:11;;;;;;;3.07;2.37;;;28.30;59.90;;;;;;6105956;23;20735;-85
2022/08/19 17:36:39;;;;;;;2.57;2.37;;;28.30;60.00;;;;;;6105312;23;20475;-83
2022/08/19 17:39:13;;;;;;;2.50;2.30;;;28.30;60.50;;;;;;6130416;23;20479;-84